sensor_id;sensor_type;location;lat;lon;timestamp;pressure;altitude;pressure_sealevel;temperature
68911;BMP180;55953;51.650;-0.522;2023-08-20T00:00:14;101092.20;;;16.40
68911;BMP180;55953;51.650;-0.522;2023-08-20T00:03:11;101096.80;;;16.50
68911;BMP180;55953;51.650;-0.522;2023-08-20T00:05:40;101097.80;;;16.50
68911;BMP180;55953;51.650;-0.522;2023-08-20T00:08:08;101103.20;;;16.50
68911;BMP180;55953;51.650;-0.522;2023-08-20T00:10:36;101102.80;;;16.50
68911;BMP180;55953;51.650;-0.522;2023-08-20T00:13:04;101099.60;;;16.40
68911;BMP180;55953;51.650;-0.522;2023-08-20T00:15:32;101103.60;;;16.40
68911;BMP180;55953;51.650;-0.522;2023-08-20T00:18:01;101113.00;;;16.40
68911;BMP180;55953;51.650;-0.522;2023-08-20T00:20:29;101114.60;;;16.40
68911;BMP180;55953;51.650;-0.522;2023-08-20T00:22:57;101124.80;;;16.40
68911;BMP180;55953;51.650;-0.522;2023-08-20T00:25:26;101130.40;;;16.30
68911;BMP180;55953;51.650;-0.522;2023-08-20T00:27:53;101133.40;;;16.30
68911;BMP180;55953;51.650;-0.522;2023-08-20T00:30:22;101132.80;;;16.44
68911;BMP180;55953;51.650;-0.522;2023-08-20T00:32:50;101132.80;;;16.50
68911;BMP180;55953;51.650;-0.522;2023-08-20T00:35:18;101134.20;;;16.50
68911;BMP180;55953;51.650;-0.522;2023-08-20T00:37:46;101138.20;;;16.50
68911;BMP180;55953;51.650;-0.522;2023-08-20T00:40:13;101139.00;;;16.60
68911;BMP180;55953;51.650;-0.522;2023-08-20T00:42:42;101135.80;;;16.60
68911;BMP180;55953;51.650;-0.522;2023-08-20T00:45:10;101134.00;;;16.60
68911;BMP180;55953;51.650;-0.522;2023-08-20T00:47:38;101130.00;;;16.70
68911;BMP180;55953;51.650;-0.522;2023-08-20T00:50:08;101128.80;;;16.70
68911;BMP180;55953;51.650;-0.522;2023-08-20T00:52:37;101133.40;;;16.70
68911;BMP180;55953;51.650;-0.522;2023-08-20T00:55:09;101137.40;;;16.74
68911;BMP180;55953;51.650;-0.522;2023-08-20T00:57:38;101143.80;;;16.80
68911;BMP180;55953;51.650;-0.522;2023-08-20T01:00:08;101146.20;;;16.80
68911;BMP180;55953;51.650;-0.522;2023-08-20T01:02:38;101149.20;;;16.80
68911;BMP180;55953;51.650;-0.522;2023-08-20T01:05:09;101141.60;;;16.90
68911;BMP180;55953;51.650;-0.522;2023-08-20T01:08:13;101145.20;;;16.90
68911;BMP180;55953;51.650;-0.522;2023-08-20T01:11:08;101141.00;;;17.00
68911;BMP180;55953;51.650;-0.522;2023-08-20T01:13:37;101143.00;;;17.00
68911;BMP180;55953;51.650;-0.522;2023-08-20T01:16:05;101148.20;;;17.00
68911;BMP180;55953;51.650;-0.522;2023-08-20T01:18:33;101151.80;;;17.00
68911;BMP180;55953;51.650;-0.522;2023-08-20T01:21:23;101150.20;;;17.00
68911;BMP180;55953;51.650;-0.522;2023-08-20T01:24:23;101152.40;;;17.00
68911;BMP180;55953;51.650;-0.522;2023-08-20T01:29:51;101154.20;;;17.00
68911;BMP180;55953;51.650;-0.522;2023-08-20T01:32:20;101148.20;;;17.00
68911;BMP180;55953;51.650;-0.522;2023-08-20T01:34:49;101148.80;;;17.00
68911;BMP180;55953;51.650;-0.522;2023-08-20T01:37:17;101153.20;;;17.00
68911;BMP180;55953;51.650;-0.522;2023-08-20T01:39:45;101151.40;;;16.98
68911;BMP180;55953;51.650;-0.522;2023-08-20T01:42:12;101149.20;;;17.00
68911;BMP180;55953;51.650;-0.522;2023-08-20T01:44:40;101149.00;;;17.00
68911;BMP180;55953;51.650;-0.522;2023-08-20T01:47:08;101145.60;;;16.90
68911;BMP180;55953;51.650;-0.522;2023-08-20T01:49:36;101145.20;;;16.90
68911;BMP180;55953;51.650;-0.522;2023-08-20T01:52:04;101142.80;;;16.90
68911;BMP180;55953;51.650;-0.522;2023-08-20T01:54:32;101142.80;;;16.90
68911;BMP180;55953;51.650;-0.522;2023-08-20T01:57:00;101152.20;;;16.90
68911;BMP180;55953;51.650;-0.522;2023-08-20T01:59:28;101152.00;;;16.90
68911;BMP180;55953;51.650;-0.522;2023-08-20T02:01:56;101155.80;;;16.80
68911;BMP180;55953;51.650;-0.522;2023-08-20T02:04:24;101155.00;;;16.80
68911;BMP180;55953;51.650;-0.522;2023-08-20T02:06:51;101157.60;;;16.80
68911;BMP180;55953;51.650;-0.522;2023-08-20T02:09:19;101155.00;;;16.80
68911;BMP180;55953;51.650;-0.522;2023-08-20T02:11:51;101154.20;;;16.82
68911;BMP180;55953;51.650;-0.522;2023-08-20T02:14:19;101152.20;;;16.80
68911;BMP180;55953;51.650;-0.522;2023-08-20T02:16:47;101154.40;;;16.80
68911;BMP180;55953;51.650;-0.522;2023-08-20T02:19:15;101154.80;;;16.80
68911;BMP180;55953;51.650;-0.522;2023-08-20T02:21:43;101160.00;;;16.80
68911;BMP180;55953;51.650;-0.522;2023-08-20T02:24:11;101161.80;;;16.80
68911;BMP180;55953;51.650;-0.522;2023-08-20T02:26:39;101161.20;;;16.80
68911;BMP180;55953;51.650;-0.522;2023-08-20T02:29:07;101156.60;;;16.80
68911;BMP180;55953;51.650;-0.522;2023-08-20T02:31:36;101156.00;;;16.80
68911;BMP180;55953;51.650;-0.522;2023-08-20T02:34:04;101156.40;;;16.80
68911;BMP180;55953;51.650;-0.522;2023-08-20T02:36:32;101156.00;;;16.80
68911;BMP180;55953;51.650;-0.522;2023-08-20T02:39:00;101153.80;;;16.80
68911;BMP180;55953;51.650;-0.522;2023-08-20T02:41:27;101161.00;;;16.80
68911;BMP180;55953;51.650;-0.522;2023-08-20T02:43:55;101157.60;;;16.80
68911;BMP180;55953;51.650;-0.522;2023-08-20T02:46:23;101156.60;;;16.80
68911;BMP180;55953;51.650;-0.522;2023-08-20T02:48:51;101160.80;;;16.80
68911;BMP180;55953;51.650;-0.522;2023-08-20T02:51:20;101160.80;;;16.84
68911;BMP180;55953;51.650;-0.522;2023-08-20T02:53:48;101159.00;;;16.86
68911;BMP180;55953;51.650;-0.522;2023-08-20T02:56:17;101158.20;;;16.80
68911;BMP180;55953;51.650;-0.522;2023-08-20T02:58:45;101162.20;;;16.80
68911;BMP180;55953;51.650;-0.522;2023-08-20T03:01:21;101160.80;;;16.80
68911;BMP180;55953;51.650;-0.522;2023-08-20T03:03:50;101161.40;;;16.70
68911;BMP180;55953;51.650;-0.522;2023-08-20T03:06:18;101158.80;;;16.70
68911;BMP180;55953;51.650;-0.522;2023-08-20T03:08:46;101160.00;;;16.70
68911;BMP180;55953;51.650;-0.522;2023-08-20T03:11:14;101164.60;;;16.70
68911;BMP180;55953;51.650;-0.522;2023-08-20T03:13:42;101170.80;;;16.64
68911;BMP180;55953;51.650;-0.522;2023-08-20T03:16:09;101171.40;;;16.60
68911;BMP180;55953;51.650;-0.522;2023-08-20T03:18:37;101173.60;;;16.60
68911;BMP180;55953;51.650;-0.522;2023-08-20T03:21:05;101175.40;;;16.60
68911;BMP180;55953;51.650;-0.522;2023-08-20T03:23:33;101176.40;;;16.50
68911;BMP180;55953;51.650;-0.522;2023-08-20T03:26:01;101168.20;;;16.50
68911;BMP180;55953;51.650;-0.522;2023-08-20T03:28:30;101172.80;;;16.50
68911;BMP180;55953;51.650;-0.522;2023-08-20T03:31:01;101176.40;;;16.48
68911;BMP180;55953;51.650;-0.522;2023-08-20T03:33:31;101176.80;;;16.40
68911;BMP180;55953;51.650;-0.522;2023-08-20T03:35:59;101171.20;;;16.40
68911;BMP180;55953;51.650;-0.522;2023-08-20T03:38:27;101178.60;;;16.40
68911;BMP180;55953;51.650;-0.522;2023-08-20T03:40:55;101174.40;;;16.40
68911;BMP180;55953;51.650;-0.522;2023-08-20T03:43:25;101175.00;;;16.46
68911;BMP180;55953;51.650;-0.522;2023-08-20T03:45:53;101178.40;;;16.44
68911;BMP180;55953;51.650;-0.522;2023-08-20T03:48:21;101179.60;;;16.50
68911;BMP180;55953;51.650;-0.522;2023-08-20T03:50:49;101174.80;;;16.48
68911;BMP180;55953;51.650;-0.522;2023-08-20T03:53:17;101179.40;;;16.40
68911;BMP180;55953;51.650;-0.522;2023-08-20T03:55:49;101184.60;;;16.40
68911;BMP180;55953;51.650;-0.522;2023-08-20T03:58:17;101197.40;;;16.40
68911;BMP180;55953;51.650;-0.522;2023-08-20T04:00:45;101198.20;;;16.40
68911;BMP180;55953;51.650;-0.522;2023-08-20T04:03:13;101199.00;;;16.50
68911;BMP180;55953;51.650;-0.522;2023-08-20T04:05:41;101195.60;;;16.50
68911;BMP180;55953;51.650;-0.522;2023-08-20T04:08:09;101196.60;;;16.40
68911;BMP180;55953;51.650;-0.522;2023-08-20T04:10:44;101193.40;;;16.40
68911;BMP180;55953;51.650;-0.522;2023-08-20T04:13:13;101190.00;;;16.34
68911;BMP180;55953;51.650;-0.522;2023-08-20T04:15:44;101192.20;;;16.34
68911;BMP180;55953;51.650;-0.522;2023-08-20T04:18:12;101193.80;;;16.40
68911;BMP180;55953;51.650;-0.522;2023-08-20T04:20:40;101198.00;;;16.40
68911;BMP180;55953;51.650;-0.522;2023-08-20T04:23:08;101193.60;;;16.50
68911;BMP180;55953;51.650;-0.522;2023-08-20T04:25:35;101195.40;;;16.50
68911;BMP180;55953;51.650;-0.522;2023-08-20T04:28:03;101201.20;;;16.58
68911;BMP180;55953;51.650;-0.522;2023-08-20T04:30:31;101209.00;;;16.60
68911;BMP180;55953;51.650;-0.522;2023-08-20T04:32:59;101210.80;;;16.70
68911;BMP180;55953;51.650;-0.522;2023-08-20T04:35:27;101210.60;;;16.80
68911;BMP180;55953;51.650;-0.522;2023-08-20T04:37:55;101206.20;;;16.88
68911;BMP180;55953;51.650;-0.522;2023-08-20T04:40:24;101209.60;;;16.90
68911;BMP180;55953;51.650;-0.522;2023-08-20T04:42:52;101215.80;;;16.90
68911;BMP180;55953;51.650;-0.522;2023-08-20T04:45:20;101217.40;;;17.00
68911;BMP180;55953;51.650;-0.522;2023-08-20T04:47:48;101220.00;;;17.00
68911;BMP180;55953;51.650;-0.522;2023-08-20T04:50:16;101224.40;;;17.00
68911;BMP180;55953;51.650;-0.522;2023-08-20T04:52:48;101232.80;;;17.10
68911;BMP180;55953;51.650;-0.522;2023-08-20T04:55:16;101228.40;;;17.10
68911;BMP180;55953;51.650;-0.522;2023-08-20T04:57:44;101228.80;;;17.20
68911;BMP180;55953;51.650;-0.522;2023-08-20T05:00:12;101232.00;;;17.20
68911;BMP180;55953;51.650;-0.522;2023-08-20T05:02:58;101228.00;;;17.20
68911;BMP180;55953;51.650;-0.522;2023-08-20T05:05:26;101228.60;;;17.30
68911;BMP180;55953;51.650;-0.522;2023-08-20T05:07:54;101233.80;;;17.30
68911;BMP180;55953;51.650;-0.522;2023-08-20T05:10:22;101236.00;;;17.30
68911;BMP180;55953;51.650;-0.522;2023-08-20T05:12:50;101235.60;;;17.38
68911;BMP180;55953;51.650;-0.522;2023-08-20T05:15:18;101228.00;;;17.40
68911;BMP180;55953;51.650;-0.522;2023-08-20T05:17:47;101242.80;;;17.30
68911;BMP180;55953;51.650;-0.522;2023-08-20T05:20:14;101240.60;;;17.30
68911;BMP180;55953;51.650;-0.522;2023-08-20T05:22:44;101248.00;;;17.30
68911;BMP180;55953;51.650;-0.522;2023-08-20T05:25:12;101253.80;;;17.30
68911;BMP180;55953;51.650;-0.522;2023-08-20T05:27:40;101253.80;;;17.20
68911;BMP180;55953;51.650;-0.522;2023-08-20T05:30:09;101256.80;;;17.20
68911;BMP180;55953;51.650;-0.522;2023-08-20T05:32:38;101260.00;;;17.10
68911;BMP180;55953;51.650;-0.522;2023-08-20T05:35:07;101262.20;;;17.10
68911;BMP180;55953;51.650;-0.522;2023-08-20T05:37:36;101261.00;;;17.10
68911;BMP180;55953;51.650;-0.522;2023-08-20T05:40:04;101259.60;;;17.10
68911;BMP180;55953;51.650;-0.522;2023-08-20T05:42:33;101262.80;;;17.10
68911;BMP180;55953;51.650;-0.522;2023-08-20T05:45:03;101267.20;;;17.10
68911;BMP180;55953;51.650;-0.522;2023-08-20T05:47:32;101267.60;;;17.10
68911;BMP180;55953;51.650;-0.522;2023-08-20T05:50:00;101269.00;;;17.20
68911;BMP180;55953;51.650;-0.522;2023-08-20T05:52:28;101270.80;;;17.20
68911;BMP180;55953;51.650;-0.522;2023-08-20T05:54:56;101269.40;;;17.28
68911;BMP180;55953;51.650;-0.522;2023-08-20T05:57:24;101276.20;;;17.40
68911;BMP180;55953;51.650;-0.522;2023-08-20T05:59:52;101276.80;;;17.40
68911;BMP180;55953;51.650;-0.522;2023-08-20T06:02:19;101279.40;;;17.50
68911;BMP180;55953;51.650;-0.522;2023-08-20T06:04:47;101284.40;;;17.50
68911;BMP180;55953;51.650;-0.522;2023-08-20T06:07:16;101277.20;;;17.50
68911;BMP180;55953;51.650;-0.522;2023-08-20T06:09:44;101279.20;;;17.50
68911;BMP180;55953;51.650;-0.522;2023-08-20T06:12:12;101278.20;;;17.50
68911;BMP180;55953;51.650;-0.522;2023-08-20T06:14:40;101280.00;;;17.50
68911;BMP180;55953;51.650;-0.522;2023-08-20T06:17:08;101278.80;;;17.60
68911;BMP180;55953;51.650;-0.522;2023-08-20T06:19:36;101287.60;;;17.60
68911;BMP180;55953;51.650;-0.522;2023-08-20T06:22:05;101289.00;;;17.70
68911;BMP180;55953;51.650;-0.522;2023-08-20T06:24:33;101297.60;;;17.70
68911;BMP180;55953;51.650;-0.522;2023-08-20T06:27:01;101293.60;;;17.78
68911;BMP180;55953;51.650;-0.522;2023-08-20T06:29:29;101291.40;;;17.80
68911;BMP180;55953;51.650;-0.522;2023-08-20T06:31:57;101297.40;;;17.80
68911;BMP180;55953;51.650;-0.522;2023-08-20T06:34:25;101297.60;;;17.80
68911;BMP180;55953;51.650;-0.522;2023-08-20T06:36:53;101299.40;;;17.84
68911;BMP180;55953;51.650;-0.522;2023-08-20T06:39:21;101296.00;;;17.90
68911;BMP180;55953;51.650;-0.522;2023-08-20T06:41:49;101293.60;;;18.04
68911;BMP180;55953;51.650;-0.522;2023-08-20T06:44:20;101291.60;;;18.20
68911;BMP180;55953;51.650;-0.522;2023-08-20T06:46:48;101297.00;;;18.30
68911;BMP180;55953;51.650;-0.522;2023-08-20T06:49:16;101293.00;;;18.30
68911;BMP180;55953;51.650;-0.522;2023-08-20T06:51:43;101302.00;;;18.34
68911;BMP180;55953;51.650;-0.522;2023-08-20T06:54:11;101303.00;;;18.30
68911;BMP180;55953;51.650;-0.522;2023-08-20T06:56:39;101303.40;;;18.40
68911;BMP180;55953;51.650;-0.522;2023-08-20T06:59:07;101306.80;;;18.34
68911;BMP180;55953;51.650;-0.522;2023-08-20T07:01:35;101307.60;;;18.40
68911;BMP180;55953;51.650;-0.522;2023-08-20T07:04:03;101310.40;;;18.40
68911;BMP180;55953;51.650;-0.522;2023-08-20T07:06:31;101309.20;;;18.40
68911;BMP180;55953;51.650;-0.522;2023-08-20T07:08:59;101314.00;;;18.40
68911;BMP180;55953;51.650;-0.522;2023-08-20T07:11:27;101313.00;;;18.40
68911;BMP180;55953;51.650;-0.522;2023-08-20T07:13:54;101312.60;;;18.50
68911;BMP180;55953;51.650;-0.522;2023-08-20T07:16:22;101318.40;;;18.60
68911;BMP180;55953;51.650;-0.522;2023-08-20T07:18:50;101311.20;;;18.64
68911;BMP180;55953;51.650;-0.522;2023-08-20T07:21:18;101315.00;;;18.70
68911;BMP180;55953;51.650;-0.522;2023-08-20T07:23:46;101314.00;;;18.80
68911;BMP180;55953;51.650;-0.522;2023-08-20T07:26:13;101318.20;;;18.90
68911;BMP180;55953;51.650;-0.522;2023-08-20T07:28:42;101317.60;;;19.04
68911;BMP180;55953;51.650;-0.522;2023-08-20T07:31:32;101318.40;;;19.12
68911;BMP180;55953;51.650;-0.522;2023-08-20T07:34:02;101323.20;;;19.24
68911;BMP180;55953;51.650;-0.522;2023-08-20T07:36:33;101324.40;;;19.30
68911;BMP180;55953;51.650;-0.522;2023-08-20T07:39:01;101332.60;;;19.20
68911;BMP180;55953;51.650;-0.522;2023-08-20T07:41:30;101322.40;;;19.18
68911;BMP180;55953;51.650;-0.522;2023-08-20T07:43:58;101326.20;;;19.10
68911;BMP180;55953;51.650;-0.522;2023-08-20T07:46:25;101333.60;;;19.00
68911;BMP180;55953;51.650;-0.522;2023-08-20T07:48:53;101336.80;;;19.00
68911;BMP180;55953;51.650;-0.522;2023-08-20T07:51:22;101335.60;;;19.10
68911;BMP180;55953;51.650;-0.522;2023-08-20T07:53:50;101332.40;;;19.18
68911;BMP180;55953;51.650;-0.522;2023-08-20T07:56:17;101331.20;;;19.28
68911;BMP180;55953;51.650;-0.522;2023-08-20T07:58:45;101328.00;;;19.40
68911;BMP180;55953;51.650;-0.522;2023-08-20T08:01:13;101326.20;;;19.40
68911;BMP180;55953;51.650;-0.522;2023-08-20T08:03:41;101324.20;;;19.50
68911;BMP180;55953;51.650;-0.522;2023-08-20T08:06:09;101325.00;;;19.60
68911;BMP180;55953;51.650;-0.522;2023-08-20T08:08:41;101327.20;;;19.60
68911;BMP180;55953;51.650;-0.522;2023-08-20T08:11:10;101328.20;;;19.60
68911;BMP180;55953;51.650;-0.522;2023-08-20T08:13:37;101324.60;;;19.64
68911;BMP180;55953;51.650;-0.522;2023-08-20T08:16:05;101325.00;;;19.74
68911;BMP180;55953;51.650;-0.522;2023-08-20T08:18:33;101324.00;;;19.84
68911;BMP180;55953;51.650;-0.522;2023-08-20T08:21:01;101330.60;;;20.00
68911;BMP180;55953;51.650;-0.522;2023-08-20T08:23:29;101329.80;;;20.10
68911;BMP180;55953;51.650;-0.522;2023-08-20T08:25:57;101329.80;;;20.30
68911;BMP180;55953;51.650;-0.522;2023-08-20T08:28:24;101327.20;;;20.40
68911;BMP180;55953;51.650;-0.522;2023-08-20T08:30:52;101332.20;;;20.50
68911;BMP180;55953;51.650;-0.522;2023-08-20T08:33:20;101332.40;;;20.50
68911;BMP180;55953;51.650;-0.522;2023-08-20T08:35:48;101333.60;;;20.50
68911;BMP180;55953;51.650;-0.522;2023-08-20T08:38:16;101330.60;;;20.58
68911;BMP180;55953;51.650;-0.522;2023-08-20T08:40:44;101332.60;;;20.50
68911;BMP180;55953;51.650;-0.522;2023-08-20T08:43:13;101331.20;;;20.50
68911;BMP180;55953;51.650;-0.522;2023-08-20T08:45:47;101333.80;;;20.60
68911;BMP180;55953;51.650;-0.522;2023-08-20T08:48:16;101335.60;;;20.60
68911;BMP180;55953;51.650;-0.522;2023-08-20T08:50:45;101334.60;;;20.58
68911;BMP180;55953;51.650;-0.522;2023-08-20T08:53:13;101341.20;;;20.66
68911;BMP180;55953;51.650;-0.522;2023-08-20T08:55:41;101340.60;;;20.80
68911;BMP180;55953;51.650;-0.522;2023-08-20T08:58:10;101342.40;;;20.90
68911;BMP180;55953;51.650;-0.522;2023-08-20T09:00:38;101341.00;;;21.10
68911;BMP180;55953;51.650;-0.522;2023-08-20T09:03:06;101341.40;;;21.20
68911;BMP180;55953;51.650;-0.522;2023-08-20T09:05:48;101346.40;;;21.30
68911;BMP180;55953;51.650;-0.522;2023-08-20T09:08:30;101353.20;;;21.44
68911;BMP180;55953;51.650;-0.522;2023-08-20T09:11:00;101356.20;;;21.40
68911;BMP180;55953;51.650;-0.522;2023-08-20T09:13:37;101353.80;;;21.30
68911;BMP180;55953;51.650;-0.522;2023-08-20T09:16:10;101359.60;;;21.20
68911;BMP180;55953;51.650;-0.522;2023-08-20T09:18:40;101357.00;;;21.00
68911;BMP180;55953;51.650;-0.522;2023-08-20T09:21:11;101358.60;;;20.80
68911;BMP180;55953;51.650;-0.522;2023-08-20T09:23:39;101358.80;;;20.68
68911;BMP180;55953;51.650;-0.522;2023-08-20T09:26:07;101360.80;;;20.56
68911;BMP180;55953;51.650;-0.522;2023-08-20T09:28:46;101360.40;;;20.50
68911;BMP180;55953;51.650;-0.522;2023-08-20T09:31:15;101361.00;;;20.40
68911;BMP180;55953;51.650;-0.522;2023-08-20T09:33:53;101360.60;;;20.40
68911;BMP180;55953;51.650;-0.522;2023-08-20T09:36:33;101355.60;;;20.40
68911;BMP180;55953;51.650;-0.522;2023-08-20T09:39:02;101361.00;;;20.40
68911;BMP180;55953;51.650;-0.522;2023-08-20T09:41:30;101361.20;;;20.50
68911;BMP180;55953;51.650;-0.522;2023-08-20T09:44:04;101355.00;;;20.48
68911;BMP180;55953;51.650;-0.522;2023-08-20T09:46:34;101361.00;;;20.40
68911;BMP180;55953;51.650;-0.522;2023-08-20T09:49:04;101355.60;;;20.30
68911;BMP180;55953;51.650;-0.522;2023-08-20T09:51:36;101358.80;;;20.20
68911;BMP180;55953;51.650;-0.522;2023-08-20T09:54:28;101366.80;;;20.20
68911;BMP180;55953;51.650;-0.522;2023-08-20T09:57:01;101360.80;;;20.32
68911;BMP180;55953;51.650;-0.522;2023-08-20T09:59:35;101358.20;;;20.50
68911;BMP180;55953;51.650;-0.522;2023-08-20T10:02:04;101353.80;;;20.60
68911;BMP180;55953;51.650;-0.522;2023-08-20T10:04:32;101354.00;;;20.80
68911;BMP180;55953;51.650;-0.522;2023-08-20T10:07:01;101351.20;;;21.12
68911;BMP180;55953;51.650;-0.522;2023-08-20T10:09:31;101349.40;;;21.40
68911;BMP180;55953;51.650;-0.522;2023-08-20T10:12:01;101352.20;;;21.66
68911;BMP180;55953;51.650;-0.522;2023-08-20T10:14:29;101353.60;;;21.80
68911;BMP180;55953;51.650;-0.522;2023-08-20T10:16:57;101352.20;;;21.80
68911;BMP180;55953;51.650;-0.522;2023-08-20T10:19:25;101350.80;;;21.80
68911;BMP180;55953;51.650;-0.522;2023-08-20T10:21:53;101358.60;;;21.80
68911;BMP180;55953;51.650;-0.522;2023-08-20T10:24:23;101351.40;;;21.70
68911;BMP180;55953;51.650;-0.522;2023-08-20T10:27:10;101353.80;;;21.70
68911;BMP180;55953;51.650;-0.522;2023-08-20T10:29:40;101358.40;;;21.78
68911;BMP180;55953;51.650;-0.522;2023-08-20T10:32:11;101364.00;;;21.70
68911;BMP180;55953;51.650;-0.522;2023-08-20T10:34:50;101364.60;;;21.60
68911;BMP180;55953;51.650;-0.522;2023-08-20T10:37:28;101365.80;;;21.60
68911;BMP180;55953;51.650;-0.522;2023-08-20T10:39:58;101364.60;;;21.50
68911;BMP180;55953;51.650;-0.522;2023-08-20T10:42:28;101363.00;;;21.40
68911;BMP180;55953;51.650;-0.522;2023-08-20T10:47:44;101360.20;;;21.30
68911;BMP180;55953;51.650;-0.522;2023-08-20T10:50:17;101356.20;;;21.30
68911;BMP180;55953;51.650;-0.522;2023-08-20T10:52:54;101351.80;;;21.40
68911;BMP180;55953;51.650;-0.522;2023-08-20T10:55:23;101355.20;;;21.50
68911;BMP180;55953;51.650;-0.522;2023-08-20T10:57:58;101360.20;;;21.60
68911;BMP180;55953;51.650;-0.522;2023-08-20T11:00:27;101350.80;;;21.70
68911;BMP180;55953;51.650;-0.522;2023-08-20T11:02:58;101347.40;;;21.80
68911;BMP180;55953;51.650;-0.522;2023-08-20T11:05:27;101347.60;;;21.96
68911;BMP180;55953;51.650;-0.522;2023-08-20T11:07:55;101345.80;;;22.20
68911;BMP180;55953;51.650;-0.522;2023-08-20T11:10:23;101342.60;;;22.30
68911;BMP180;55953;51.650;-0.522;2023-08-20T11:12:51;101343.80;;;22.50
68911;BMP180;55953;51.650;-0.522;2023-08-20T11:15:19;101342.00;;;22.70
68911;BMP180;55953;51.650;-0.522;2023-08-20T11:17:49;101337.20;;;23.00
68911;BMP180;55953;51.650;-0.522;2023-08-20T11:20:18;101330.20;;;23.18
68911;BMP180;55953;51.650;-0.522;2023-08-20T11:22:48;101325.20;;;23.34
68911;BMP180;55953;51.650;-0.522;2023-08-20T11:25:15;101321.80;;;23.40
68911;BMP180;55953;51.650;-0.522;2023-08-20T11:27:44;101329.00;;;23.30
68911;BMP180;55953;51.650;-0.522;2023-08-20T11:30:12;101330.40;;;23.20
68911;BMP180;55953;51.650;-0.522;2023-08-20T11:32:41;101325.20;;;23.20
68911;BMP180;55953;51.650;-0.522;2023-08-20T11:35:12;101322.60;;;23.18
68911;BMP180;55953;51.650;-0.522;2023-08-20T11:37:40;101327.60;;;23.24
68911;BMP180;55953;51.650;-0.522;2023-08-20T11:40:09;101327.60;;;23.32
68911;BMP180;55953;51.650;-0.522;2023-08-20T11:42:37;101320.60;;;23.44
68911;BMP180;55953;51.650;-0.522;2023-08-20T11:45:05;101320.20;;;23.60
68911;BMP180;55953;51.650;-0.522;2023-08-20T11:47:41;101319.20;;;23.76
68911;BMP180;55953;51.650;-0.522;2023-08-20T11:50:10;101315.80;;;23.86
68911;BMP180;55953;51.650;-0.522;2023-08-20T11:52:38;101314.40;;;23.90
68911;BMP180;55953;51.650;-0.522;2023-08-20T11:55:08;101314.20;;;24.00
68911;BMP180;55953;51.650;-0.522;2023-08-20T11:57:37;101314.00;;;24.14
68911;BMP180;55953;51.650;-0.522;2023-08-20T12:00:07;101321.60;;;24.38
68911;BMP180;55953;51.650;-0.522;2023-08-20T12:02:43;101315.40;;;24.70
68911;BMP180;55953;51.650;-0.522;2023-08-20T12:05:11;101306.80;;;25.00
68911;BMP180;55953;51.650;-0.522;2023-08-20T12:07:40;101304.00;;;25.20
68911;BMP180;55953;51.650;-0.522;2023-08-20T12:10:21;101301.20;;;25.40
68911;BMP180;55953;51.650;-0.522;2023-08-20T12:12:50;101304.80;;;25.50
68911;BMP180;55953;51.650;-0.522;2023-08-20T12:15:19;101304.80;;;25.30
68911;BMP180;55953;51.650;-0.522;2023-08-20T12:18:01;101305.80;;;25.20
68911;BMP180;55953;51.650;-0.522;2023-08-20T12:20:34;101312.20;;;25.18
68911;BMP180;55953;51.650;-0.522;2023-08-20T12:23:05;101312.40;;;25.20
68911;BMP180;55953;51.650;-0.522;2023-08-20T12:25:34;101313.80;;;25.12
68911;BMP180;55953;51.650;-0.522;2023-08-20T12:28:04;101313.20;;;25.10
68911;BMP180;55953;51.650;-0.522;2023-08-20T12:30:33;101307.60;;;25.30
68911;BMP180;55953;51.650;-0.522;2023-08-20T12:33:06;101303.60;;;25.40
68911;BMP180;55953;51.650;-0.522;2023-08-20T12:35:35;101303.20;;;25.60
68911;BMP180;55953;51.650;-0.522;2023-08-20T12:38:03;101304.40;;;25.60
68911;BMP180;55953;51.650;-0.522;2023-08-20T12:40:31;101301.40;;;25.70
68911;BMP180;55953;51.650;-0.522;2023-08-20T12:42:59;101304.00;;;25.80
68911;BMP180;55953;51.650;-0.522;2023-08-20T12:45:27;101304.60;;;25.92
68911;BMP180;55953;51.650;-0.522;2023-08-20T12:47:55;101302.40;;;25.78
68911;BMP180;55953;51.650;-0.522;2023-08-20T12:50:26;101299.80;;;25.50
68911;BMP180;55953;51.650;-0.522;2023-08-20T12:52:54;101302.80;;;25.18
68911;BMP180;55953;51.650;-0.522;2023-08-20T12:55:21;101303.20;;;24.90
68911;BMP180;55953;51.650;-0.522;2023-08-20T12:57:58;101302.20;;;24.72
68911;BMP180;55953;51.650;-0.522;2023-08-20T13:00:26;101301.80;;;24.50
68911;BMP180;55953;51.650;-0.522;2023-08-20T13:02:55;101304.40;;;24.26
68911;BMP180;55953;51.650;-0.522;2023-08-20T13:05:25;101303.00;;;24.00
68911;BMP180;55953;51.650;-0.522;2023-08-20T13:07:54;101306.60;;;23.90
68911;BMP180;55953;51.650;-0.522;2023-08-20T13:10:22;101301.40;;;23.76
68911;BMP180;55953;51.650;-0.522;2023-08-20T13:12:54;101300.00;;;23.62
68911;BMP180;55953;51.650;-0.522;2023-08-20T13:15:26;101298.20;;;23.50
68911;BMP180;55953;51.650;-0.522;2023-08-20T13:17:55;101298.00;;;23.60
68911;BMP180;55953;51.650;-0.522;2023-08-20T13:20:23;101299.80;;;23.68
68911;BMP180;55953;51.650;-0.522;2023-08-20T13:22:52;101298.40;;;23.82
68911;BMP180;55953;51.650;-0.522;2023-08-20T13:25:21;101295.40;;;24.36
68911;BMP180;55953;51.650;-0.522;2023-08-20T13:27:49;101293.20;;;24.70
68911;BMP180;55953;51.650;-0.522;2023-08-20T13:30:18;101294.40;;;24.80
68911;BMP180;55953;51.650;-0.522;2023-08-20T13:32:47;101300.20;;;24.80
68911;BMP180;55953;51.650;-0.522;2023-08-20T13:35:15;101298.60;;;24.70
68911;BMP180;55953;51.650;-0.522;2023-08-20T13:37:42;101296.20;;;24.68
68911;BMP180;55953;51.650;-0.522;2023-08-20T13:40:11;101291.40;;;24.50
68911;BMP180;55953;51.650;-0.522;2023-08-20T13:42:39;101289.80;;;24.50
68911;BMP180;55953;51.650;-0.522;2023-08-20T13:45:07;101288.60;;;24.50
68911;BMP180;55953;51.650;-0.522;2023-08-20T13:47:35;101285.80;;;24.50
68911;BMP180;55953;51.650;-0.522;2023-08-20T13:50:03;101290.00;;;24.60
68911;BMP180;55953;51.650;-0.522;2023-08-20T13:52:32;101291.40;;;24.62
68911;BMP180;55953;51.650;-0.522;2023-08-20T13:55:00;101294.20;;;24.74
68911;BMP180;55953;51.650;-0.522;2023-08-20T13:57:28;101291.80;;;24.80
68911;BMP180;55953;51.650;-0.522;2023-08-20T13:59:57;101287.20;;;25.00
68911;BMP180;55953;51.650;-0.522;2023-08-20T14:02:26;101282.60;;;25.40